Time;durP1;ratioP1;P1;durP2;ratioP2;P2;SDS_P1;SDS_P2;PMS_P1;PMS_P2;Temp;Humidity;BMP_temperature;BMP_pressure;BME280_temperature;BME280_humidity;BME280_pressure;Samples;Min_cycle;Max_cycle;Signal;HPM_P1;HPM_P2
2023/10/04 00:01:55;;;;;;;3.30;2.05;;;;;;;15.24;73.28;100309.09;7264006;39;20347;31
2023/10/04 00:07:15;;;;;;;3.77;2.53;;;;;;;15.24;73.07;100310.97;7239440;40;20403;31
2023/10/04 00:12:49;;;;;;;3.37;2.30;;;;;;;15.08;73.45;100302.81;7221681;40;21213;31
2023/10/04 00:18:27;;;;;;;6.43;2.60;;;;;;;15.07;72.98;100303.81;7126604;40;20248;31
2023/10/04 00:23:45;;;;;;;4.25;2.55;;;;;;;15.06;73.25;100312.97;7197583;40;20284;31
2023/10/04 00:29:06;;;;;;;3.87;2.30;;;;;;;14.95;73.89;100306.03;7203727;40;20348;31
2023/10/04 00:34:42;;;;;;;4.27;2.40;;;;;;;15.00;74.06;100300.94;7267129;39;21066;31
2023/10/04 00:45:24;;;;;;;4.40;2.50;;;;;;;15.15;72.79;100307.38;7363934;39;20485;31
2023/10/04 00:51:06;;;;;;;5.10;2.40;;;;;;;14.99;72.82;100309.25;7325654;39;20325;31
2023/10/04 01:01:45;;;;;;;4.07;2.30;;;;;;;14.82;73.72;100320.09;7296435;40;20281;31
2023/10/04 01:07:21;;;;;;;3.40;2.45;;;;;;;14.69;73.63;100317.00;7256412;40;20352;31
2023/10/04 01:12:58;;;;;;;5.10;2.50;;;;;;;14.71;73.21;100323.09;7256130;40;20340;31
2023/10/04 01:18:16;;;;;;;5.55;2.30;;;;;;;14.74;73.41;100320.03;7281107;40;20385;31
2023/10/04 01:23:52;;;;;;;3.10;2.40;;;;;;;14.62;73.40;100312.38;7292813;39;20333;31
2023/10/04 01:29:26;;;;;;;4.73;2.50;;;;;;;14.56;73.68;100322.06;7320937;39;20244;31
2023/10/04 01:35:02;;;;;;;4.97;2.20;;;;;;;14.40;73.82;100316.53;7256337;40;20289;31
2023/10/04 01:45:45;;;;;;;3.07;2.30;;;;;;;14.26;73.55;100312.56;7283279;39;20269;31
2023/10/04 01:51:21;;;;;;;5.30;2.53;;;;;;;14.18;73.87;100312.53;7252530;40;20245;31
2023/10/04 01:56:41;;;;;;;4.00;2.40;;;;;;;14.10;73.89;100320.62;7247083;40;20243;31
2023/10/04 02:08:17;;;;;;;6.45;2.30;;;;;;;13.90;73.74;100317.31;7308126;39;20344;31
2023/10/04 02:13:37;;;;;;;4.90;2.20;;;;;;;13.90;73.90;100325.44;7354013;39;20384;31
2023/10/04 02:19:12;;;;;;;6.65;2.45;;;;;;;13.87;73.27;100328.44;7359531;39;20321;31
2023/10/04 02:24:48;;;;;;;3.65;2.05;;;;;;;13.77;73.61;100325.00;7239493;40;20325;31
2023/10/04 02:35:29;;;;;;;5.03;2.40;;;;;;;13.77;73.94;100329.59;7223595;40;21263;31
2023/10/04 02:46:10;;;;;;;4.47;2.30;;;;;;;13.58;74.10;100325.22;7278513;39;21332;31
2023/10/04 02:51:29;;;;;;;5.28;2.24;;;;;;;13.63;74.08;100319.31;7359855;39;20226;31
2023/10/04 02:56:50;;;;;;;5.10;2.30;;;;;;;13.57;73.72;100325.34;7327550;39;20327;31
2023/10/04 03:02:25;;;;;;;5.30;2.30;;;;;;;13.42;73.71;100320.53;7295005;39;20767;31
2023/10/04 03:13:11;;;;;;;3.73;2.10;;;;;;;13.45;73.94;100328.34;7332673;39;20754;31
2023/10/04 03:23:44;;;;;;;5.93;2.03;;;;;;;13.46;73.96;100342.72;7317734;39;20714;31
2023/10/04 03:34:09;;;;;;;4.45;2.35;;;;;;;13.49;73.73;100342.41;7314764;39;21202;31
2023/10/04 03:44:50;;;;;;;3.93;2.20;;;;;;;13.38;74.85;100345.37;7393684;39;20329;31
2023/10/04 03:50:11;;;;;;;5.60;2.20;;;;;;;13.43;74.41;100341.16;7319499;39;20248;31
2023/10/04 03:55:47;;;;;;;9.27;2.27;;;;;;;13.37;74.04;100336.41;7301742;40;20252;31
2023/10/04 04:01:26;;;;;;;4.93;2.33;;;;;;;13.30;74.84;100335.31;7075789;40;20234;31
2023/10/04 04:06:43;;;;;;;5.37;2.20;;;;;;;13.32;74.13;100346.84;7265544;39;20252;31
2023/10/04 04:12:05;;;;;;;4.50;2.00;;;;;;;13.33;74.77;100345.00;7299910;39;20252;31
2023/10/04 04:17:39;;;;;;;3.87;2.30;;;;;;;13.31;74.56;100341.56;7292029;39;21947;31
2023/10/04 04:23:19;;;;;;;4.53;2.50;;;;;;;13.32;74.46;100344.12;7282255;39;20265;31
2023/10/04 04:28:55;;;;;;;4.80;2.50;;;;;;;13.26;74.38;100361.00;7280024;40;20241;31
2023/10/04 04:34:32;;;;;;;4.63;2.67;;;;;;;13.17;74.80;100348.38;7240276;40;20235;31
2023/10/04 04:40:09;;;;;;;4.55;2.55;;;;;;;13.06;74.40;100343.19;7208583;40;20259;31
2023/10/04 04:45:30;;;;;;;3.70;2.50;;;;;;;13.09;74.58;100354.53;7206330;40;20787;31
2023/10/04 04:51:11;;;;;;;6.70;2.60;;;;;;;13.06;74.45;100346.75;7211347;40;20693;31
2023/10/04 04:56:45;;;;;;;6.10;2.50;;;;;;;12.99;74.27;100336.66;7276109;39;20333;31
2023/10/04 05:02:08;;;;;;;6.40;2.30;;;;;;;12.97;74.16;100355.78;7248817;40;20369;31
2023/10/04 05:07:43;;;;;;;5.37;3.00;;;;;;;12.89;74.18;100344.03;7283548;40;20227;31
2023/10/04 05:13:02;;;;;;;4.55;3.30;;;;;;;12.78;74.08;100349.63;7221511;40;20257;31
2023/10/04 05:18:38;;;;;;;3.70;2.20;;;;;;;12.71;74.06;100351.25;7241502;40;20265;31
2023/10/04 05:29:18;;;;;;;4.97;2.70;;;;;;;12.23;73.87;100368.59;7265906;39;20417;31
2023/10/04 05:34:38;;;;;;;4.00;2.40;;;;;;;12.23;74.40;100365.87;7280287;39;20261;31
2023/10/04 05:39:58;;;;;;;4.05;2.80;;;;;;;12.31;74.29;100367.84;7297843;39;20355;31
2023/10/04 05:45:36;;;;;;;5.35;2.70;;;;;;;12.13;nan;100365.06;7341617;39;20387;31
2023/10/04 05:50:58;;;;;;;4.13;2.67;;;;;;;12.06;74.45;100372.06;7311297;39;20362;31
2023/10/04 05:56:33;;;;;;;4.80;3.00;;;;;;;12.08;73.59;100368.22;7283542;40;20242;31
2023/10/04 06:02:10;;;;;;;10.87;3.20;;;;;;;11.98;73.82;100375.47;7265142;40;20241;31
2023/10/04 06:07:30;;;;;;;5.85;2.90;;;;;;;11.94;74.71;100386.72;7256534;40;20271;31
2023/10/04 06:13:08;;;;;;;5.97;2.90;;;;;;;11.90;74.72;100383.47;7308143;39;20451;31
2023/10/04 06:18:42;;;;;;;5.00;2.80;;;;;;;11.97;74.59;100392.72;7239458;40;21242;31
2023/10/04 06:24:01;;;;;;;6.70;2.45;;;;;;;12.01;75.21;100401.38;7222694;40;20269;31
2023/10/04 06:29:36;;;;;;;3.35;2.20;;;;;;;12.10;74.81;100400.50;7297159;39;20249;31
2023/10/04 06:35:12;;;;;;;4.63;2.47;;;;;;;12.12;75.67;100412.84;7288407;39;20387;31
2023/10/04 06:40:47;;;;;;;4.63;2.47;;;;;;;12.23;75.18;100416.41;7264234;40;20293;31
2023/10/04 06:46:10;;;;;;;3.35;2.10;;;;;;;12.33;75.70;100433.44;7277624;40;20260;31
2023/10/04 06:51:45;;;;;;;4.30;2.10;;;;;;;12.44;76.35;100423.28;7234196;40;20350;31
2023/10/04 06:57:06;;;;;;;5.27;2.50;;;;;;;12.68;76.42;100430.03;7217263;40;20241;31
2023/10/04 07:02:41;;;;;;;6.17;2.20;;;;;;;12.85;76.54;100437.34;7266483;40;20259;31
2023/10/04 07:08:18;;;;;;;6.20;2.30;;;;;;;13.11;77.06;100440.19;7232114;40;20260;31
2023/10/04 07:13:39;;;;;;;5.50;2.53;;;;;;;13.33;76.49;100446.03;7269044;40;20319;31
2023/10/04 07:19:14;;;;;;;5.70;2.35;;;;;;;13.44;77.32;100445.78;7275068;39;20251;31
2023/10/04 07:24:50;;;;;;;4.00;2.07;;;;;;;13.60;77.13;100450.53;7244511;40;20256;31
2023/10/04 07:30:25;;;;;;;7.75;2.40;;;;;;;13.71;77.14;100447.56;7225729;40;20241;31
2023/10/04 07:35:45;;;;;;;5.93;2.50;;;;;;;13.87;77.46;100457.69;7211370;40;20235;31
2023/10/04 07:41:21;;;;;;;6.63;3.30;;;;;;;13.93;77.87;100459.78;7191758;40;20246;31
2023/10/04 07:46:56;;;;;;;8.60;2.80;;;;;;;13.99;78.26;100451.88;7254618;40;20234;31
2023/10/04 07:52:30;;;;;;;6.15;2.50;;;;;;;14.22;77.69;100463.03;7224618;40;21270;31
2023/10/04 07:58:08;;;;;;;4.50;2.25;;;;;;;14.37;77.23;100469.62;7216669;40;20261;31
2023/10/04 08:03:27;;;;;;;4.80;2.20;;;;;;;14.46;76.43;100480.53;7277760;39;20689;31
2023/10/04 08:14:07;;;;;;;6.07;2.37;;;;;;;14.85;75.85;100473.63;7329477;39;20241;31
2023/10/04 08:19:40;;;;;;;4.53;2.00;;;;;;;15.05;75.35;100466.91;7326986;39;20240;31
2023/10/04 08:30:19;;;;;;;4.33;2.03;;;;;;;15.33;74.05;100457.50;7317096;39;21085;31
2023/10/04 08:40:43;;;;;;;5.90;2.30;;;;;;;15.61;73.12;100470.84;7286839;39;21112;31
2023/10/04 08:51:39;;;;;;;7.13;2.20;;;;;;;15.79;72.44;100466.09;7312441;39;20264;31
2023/10/04 08:57:14;;;;;;;7.27;2.20;;;;;;;15.92;72.78;100458.28;7255674;40;20421;31
2023/10/04 09:02:50;;;;;;;7.55;2.10;;;;;;;16.06;72.75;100452.12;7256387;40;20376;31
2023/10/04 09:08:26;;;;;;;6.60;2.23;;;;;;;16.16;71.82;100447.37;7196690;40;20397;31
2023/10/04 09:19:17;;;;;;;8.00;2.20;;;;;;;16.36;71.49;100455.19;7265529;40;21720;31
2023/10/04 09:24:47;;;;;;;8.10;3.10;;;;;;;16.50;70.55;100443.56;7236413;40;20239;31
2023/10/04 09:30:25;;;;;;;5.40;2.00;;;;;;;16.66;69.93;100449.00;7248039;40;20342;31
2023/10/04 09:35:58;;;;;;;8.88;2.24;;;;;;;16.79;70.41;100451.19;7280025;40;20257;31
2023/10/04 09:41:34;;;;;;;8.00;2.20;;;;;;;16.88;68.32;100448.25;7197030;40;20349;31
2023/10/04 09:47:09;;;;;;;5.70;1.63;;;;;;;16.94;68.29;100452.12;7206801;40;20269;31
2023/10/04 09:52:42;;;;;;;7.27;1.90;;;;;;;17.16;67.61;100445.06;7165724;40;20279;31
2023/10/04 10:03:19;;;;;;;6.33;2.03;;;;;;;17.53;66.87;100447.88;7275237;39;20496;31
2023/10/04 10:08:53;;;;;;;4.80;1.80;;;;;;;17.64;65.59;100454.84;7299191;40;20292;31
2023/10/04 10:14:28;;;;;;;4.50;2.10;;;;;;;17.75;66.03;100447.09;7284639;40;20377;31
2023/10/04 10:20:05;;;;;;;3.90;1.70;;;;;;;17.70;65.16;100444.06;7273671;40;20244;31
2023/10/04 10:25:41;;;;;;;4.00;1.63;;;;;;;17.64;64.52;100449.41;7250261;40;20245;31
2023/10/04 10:31:15;;;;;;;5.25;2.00;;;;;;;17.76;63.83;100445.22;7277018;40;20279;31
2023/10/04 10:36:51;;;;;;;4.17;1.87;;;;;;;17.87;62.68;100440.16;7239603;40;20253;31
2023/10/04 10:42:26;;;;;;;4.40;1.90;;;;;;;18.11;62.20;100427.34;7226035;40;20241;31
2023/10/04 10:48:02;;;;;;;3.83;1.43;;;;;;;18.23;61.26;100425.84;7006155;40;20241;31
2023/10/04 10:53:37;;;;;;;5.10;1.75;;;;;;;18.35;59.56;100427.09;7209721;40;20261;31
2023/10/04 10:59:12;;;;;;;3.73;1.80;;;;;;;18.50;58.37;100429.84;7215655;40;20355;31
2023/10/04 11:04:47;;;;;;;5.10;1.80;;;;;;;18.68;58.11;100438.53;7247719;40;20241;31
2023/10/04 11:10:23;;;;;;;4.50;2.00;;;;;;;18.30;58.84;100426.78;7230726;40;20709;31
2023/10/04 11:15:42;;;;;;;3.57;1.60;;;;;;;18.18;57.86;100426.41;7231306;40;20262;31
2023/10/04 11:21:16;;;;;;;2.07;1.40;;;;;;;18.46;55.98;100413.84;7232320;40;20256;31
2023/10/04 11:26:56;;;;;;;4.50;1.80;;;;;;;18.24;56.62;100403.00;7295417;39;20256;31
2023/10/04 11:32:31;;;;;;;4.30;1.80;;;;;;;18.61;56.17;100404.81;7242880;40;20814;31
2023/10/04 11:43:14;;;;;;;4.00;1.55;;;;;;;19.20;54.14;100375.50;7299299;40;20257;31
2023/10/04 11:48:49;;;;;;;4.85;1.55;;;;;;;19.50;54.47;100370.81;7250559;40;20281;31
2023/10/04 11:54:26;;;;;;;6.30;1.70;;;;;;;19.62;52.23;100355.56;7274157;39;20377;31
2023/10/04 12:00:00;;;;;;;4.50;1.60;;;;;;;19.61;50.95;100354.72;7235304;40;21092;31
2023/10/04 12:05:35;;;;;;;4.37;1.70;;;;;;;19.82;52.78;100345.66;7188502;40;21137;31
2023/10/04 12:10:56;;;;;;;4.90;1.80;;;;;;;20.15;51.56;100334.91;7131087;40;20260;31
2023/10/04 12:16:34;;;;;;;3.60;1.60;;;;;;;20.29;51.19;100331.22;7158304;40;20243;31
2023/10/04 12:21:56;;;;;;;2.70;1.50;;;;;;;20.18;50.68;100318.94;7181646;40;20342;31
2023/10/04 12:27:21;;;;;;;6.20;2.20;;;;;;;20.29;50.96;100322.16;7211220;40;20344;31
2023/10/04 12:32:51;;;;;;;4.40;1.80;;;;;;;20.19;51.13;100311.56;7232234;40;20257;31
2023/10/04 12:38:27;;;;;;;4.27;1.90;;;;;;;20.25;50.19;100313.50;7251174;40;20284;31
2023/10/04 12:49:07;;;;;;;5.00;2.20;;;;;;;20.09;49.63;100322.06;7269647;40;21100;31
2023/10/04 12:54:40;;;;;;;4.80;2.60;;;;;;;20.06;50.41;100319.69;7287251;39;20306;31
2023/10/04 13:00:15;;;;;;;5.15;2.05;;;;;;;20.04;50.48;100321.81;7292692;39;20261;31
2023/10/04 13:05:52;;;;;;;3.37;2.13;;;;;;;20.02;52.19;100307.47;7250697;40;20273;31
2023/10/04 13:16:33;;;;;;;4.13;1.93;;;;;;;19.96;51.85;100308.28;7254657;40;21151;31
2023/10/04 13:27:13;;;;;;;5.63;2.23;;;;;;;19.72;52.30;100299.47;7332968;39;20509;31
2023/10/04 13:32:47;;;;;;;4.20;2.00;;;;;;;19.62;52.28;100278.97;7242746;40;20279;31
2023/10/04 13:38:19;;;;;;;6.10;2.30;;;;;;;19.67;52.25;100285.53;7220249;40;20554;31
2023/10/04 13:43:56;;;;;;;5.90;2.20;;;;;;;19.59;51.58;100279.38;7219596;40;20274;31
2023/10/04 13:49:32;;;;;;;4.63;2.10;;;;;;;19.66;52.14;100281.09;7160268;40;20459;31
2023/10/04 13:55:09;;;;;;;4.20;1.90;;;;;;;19.68;51.78;100287.22;7217252;40;20260;31
2023/10/04 14:00:46;;;;;;;5.70;2.60;;;;;;;19.55;51.89;100295.34;7207619;40;20801;31
2023/10/04 14:06:21;;;;;;;4.70;2.30;;;;;;;19.50;52.57;100292.34;7194103;40;20328;31
2023/10/04 14:17:07;;;;;;;5.07;2.22;;;;;;;19.36;51.71;100265.88;7263070;39;20267;31
2023/10/04 14:27:27;;;;;;;4.18;2.38;;;;;;;19.42;51.32;100256.06;7299465;39;20272;31
2023/10/04 14:33:05;;;;;;;4.80;2.40;;;;;;;19.30;52.76;100244.81;7296920;40;21167;31
2023/10/04 14:38:39;;;;;;;7.97;2.63;;;;;;;19.32;52.89;100250.91;7293501;39;20806;31
2023/10/04 14:44:16;;;;;;;4.50;2.33;;;;;;;19.27;52.10;100247.91;7274862;40;20241;31
2023/10/04 14:49:51;;;;;;;6.35;2.58;;;;;;;19.33;54.13;100237.06;7257536;40;20244;31
2023/10/04 14:55:27;;;;;;;6.70;2.80;;;;;;;19.26;52.82;100247.06;7262173;40;20371;31
2023/10/04 15:01:06;;;;;;;8.40;3.20;;;;;;;19.19;53.05;100242.59;7224548;40;20261;31
2023/10/04 15:06:43;;;;;;;5.67;2.53;;;;;;;19.19;53.19;100237.13;7231299;40;20285;31
2023/10/04 15:12:01;;;;;;;6.20;2.60;;;;;;;19.26;53.40;100246.25;7242198;40;20396;31
2023/10/04 15:17:21;;;;;;;6.95;2.90;;;;;;;19.22;55.19;100234.84;7268934;39;20235;31
2023/10/04 15:23:02;;;;;;;5.10;2.85;;;;;;;19.12;54.62;100234.34;7369500;39;20262;31
2023/10/04 15:28:33;;;;;;;6.60;2.60;;;;;;;19.07;54.00;100246.91;7268542;40;20256;31
2023/10/04 15:33:55;;;;;;;9.50;3.50;;;;;;;19.06;54.74;100253.41;7288037;40;20237;31
2023/10/04 15:39:31;;;;;;;8.20;3.30;;;;;;;18.95;55.65;100245.75;7286846;40;20310;31
2023/10/04 15:44:51;;;;;;;5.70;3.10;;;;;;;18.94;54.85;100244.91;7228977;40;20242;31
2023/10/04 15:50:12;;;;;;;6.00;3.30;;;;;;;18.89;55.19;100248.22;7247567;40;21255;31
2023/10/04 16:00:53;;;;;;;5.97;3.03;;;;;;;18.73;56.95;100226.63;7299324;39;20277;31
2023/10/04 16:11:33;;;;;;;6.23;3.47;;;;;;;18.53;59.65;100232.88;7381085;39;20273;31
2023/10/04 16:22:14;;;;;;;8.60;3.60;;;;;;;18.31;60.28;100241.00;7296324;40;20257;31
2023/10/04 16:32:54;;;;;;;5.95;3.30;;;;;;;18.16;61.67;100231.16;7327192;39;21398;31
2023/10/04 16:43:44;;;;;;;;;;;;;;;;;;;;;
2023/10/04 16:54:00;;;;;;;6.70;3.40;;;;;;;17.86;63.11;100224.84;7309765;39;20282;31
2023/10/04 16:59:28;;;;;;;9.27;3.57;;;;;;;17.71;63.24;100246.69;7340324;39;20324;31
2023/10/04 17:10:09;;;;;;;6.10;3.10;;;;;;;17.47;63.48;100230.53;7377821;39;20283;31
2023/10/04 17:20:34;;;;;;;6.56;3.86;;;;;;;17.29;63.97;100238.22;7338452;39;21072;31
2023/10/04 17:26:11;;;;;;;8.30;3.37;;;;;;;17.16;64.46;100238.81;7257111;40;20247;31
2023/10/04 17:31:31;;;;;;;8.40;3.60;;;;;;;17.07;64.62;100234.47;7240247;40;20241;31
2023/10/04 17:37:06;;;;;;;7.63;3.70;;;;;;;16.98;65.02;100243.75;7256990;40;20263;31
2023/10/04 17:42:40;;;;;;;8.03;3.30;;;;;;;16.89;64.61;100237.53;7044243;40;20276;31
2023/10/04 17:48:15;;;;;;;7.47;3.87;;;;;;;16.79;64.77;100253.25;7233838;40;20323;31
2023/10/04 17:53:32;;;;;;;6.47;4.07;;;;;;;16.71;64.57;100255.19;7235524;40;21354;31
2023/10/04 18:04:13;;;;;;;8.60;3.70;;;;;;;16.46;66.27;100246.25;7305187;39;20263;31
2023/10/04 18:09:35;;;;;;;8.45;3.75;;;;;;;16.41;65.42;100252.22;7250106;40;20259;31
2023/10/04 18:15:07;;;;;;;7.70;3.60;;;;;;;16.28;65.85;100259.31;7326720;39;20252;31
2023/10/04 18:20:43;;;;;;;8.45;3.75;;;;;;;16.19;66.25;100253.06;7318780;39;20380;31
2023/10/04 18:26:18;;;;;;;9.40;3.95;;;;;;;16.06;65.76;100261.75;7316285;39;20372;31
2023/10/04 18:31:51;;;;;;;6.40;3.70;;;;;;;15.96;66.76;100272.00;7277934;39;20388;31
2023/10/04 18:37:28;;;;;;;9.67;3.93;;;;;;;15.85;66.97;100260.63;7198429;40;20682;31
2023/10/04 18:42:48;;;;;;;7.50;3.60;;;;;;;15.65;66.82;100262.91;7256139;40;20760;31
2023/10/04 18:48:23;;;;;;;10.60;4.00;;;;;;;15.20;67.79;100261.56;7272100;39;20468;31
2023/10/04 18:53:59;;;;;;;6.15;3.70;;;;;;;15.04;68.75;100263.44;7295516;39;20323;31
2023/10/04 18:59:21;;;;;;;8.27;4.10;;;;;;;14.99;68.56;100265.81;7224347;40;20454;31
2023/10/04 19:04:59;;;;;;;9.33;4.50;;;;;;;14.98;68.42;100248.66;7317126;40;20253;31
2023/10/04 19:10:36;;;;;;;7.50;3.80;;;;;;;14.85;68.46;100251.03;7206247;40;20517;31
2023/10/04 19:15:59;;;;;;;10.50;4.00;;;;;;;14.65;68.42;100263.22;7216754;40;20240;31
2023/10/04 19:21:18;;;;;;;9.03;3.70;;;;;;;14.52;68.54;100254.72;7258344;40;20298;31
2023/10/04 19:26:55;;;;;;;7.17;3.70;;;;;;;14.61;68.09;100254.53;7265525;39;20251;31
2023/10/04 19:32:27;;;;;;;7.85;3.75;;;;;;;14.43;68.53;100260.13;7302304;39;20259;31
2023/10/04 19:37:48;;;;;;;7.50;3.73;;;;;;;14.34;68.92;100260.22;7306524;39;20245;31
2023/10/04 19:43:21;;;;;;;7.50;3.77;;;;;;;14.38;68.83;100257.06;7297844;39;20246;31
2023/10/04 19:48:42;;;;;;;6.45;3.45;;;;;;;14.37;68.84;100260.78;7292449;39;20712;31
2023/10/04 19:54:02;;;;;;;8.20;3.90;;;;;;;14.41;69.10;100262.12;7306214;39;20242;31
2023/10/04 19:59:38;;;;;;;8.90;3.70;;;;;;;14.33;68.87;100253.94;7326288;39;20478;31
2023/10/04 20:05:14;;;;;;;6.30;3.60;;;;;;;14.26;69.29;100263.72;7277253;39;20291;31
2023/10/04 20:10:48;;;;;;;7.67;3.80;;;;;;;14.22;68.79;100262.38;7257866;40;21171;31
2023/10/04 20:16:24;;;;;;;8.73;3.70;;;;;;;14.14;69.91;100256.91;7261414;40;21363;31
2023/10/04 20:21:59;;;;;;;7.73;3.50;;;;;;;14.03;69.32;100253.66;7273373;39;20316;31
2023/10/04 20:27:35;;;;;;;8.80;4.20;;;;;;;14.04;69.47;100248.06;7279362;39;20256;31
2023/10/04 20:33:11;;;;;;;7.90;3.50;;;;;;;14.01;69.38;100237.53;7258050;40;20261;31
2023/10/04 20:38:45;;;;;;;8.37;3.57;;;;;;;14.05;69.55;100241.63;7207345;40;20319;31
2023/10/04 20:44:06;;;;;;;8.10;3.55;;;;;;;14.06;69.17;100237.91;7211494;40;20361;31
2023/10/04 20:49:40;;;;;;;9.10;4.30;;;;;;;13.98;69.58;100236.03;7253729;40;20244;31
2023/10/04 20:55:11;;;;;;;7.05;3.40;;;;;;;13.96;69.67;100232.63;7330564;39;20279;31
2023/10/04 21:06:08;;;;;;;10.00;3.70;;;;;;;13.69;70.27;100238.22;7257077;40;20232;31
2023/10/04 21:11:44;;;;;;;6.90;3.93;;;;;;;13.43;71.27;100232.84;7300973;39;20340;31
2023/10/04 21:22:24;;;;;;;8.00;3.60;;;;;;;13.02;73.62;100236.22;7317490;39;20257;31
2023/10/04 21:32:55;;;;;;;10.65;4.85;;;;;;;13.08;73.59;100230.19;7275731;39;21194;31
2023/10/04 21:43:29;;;;;;;7.90;4.00;;;;;;;13.25;72.09;100225.78;7298634;39;20547;31
2023/10/04 21:48:47;;;;;;;8.13;3.87;;;;;;;13.11;72.79;100224.50;7278467;40;20308;31
2023/10/04 21:54:07;;;;;;;8.30;3.73;;;;;;;13.01;72.98;100221.84;7280045;39;20266;31
2023/10/04 21:59:38;;;;;;;6.00;3.60;;;;;;;13.04;72.24;100207.13;7300715;40;21224;31
2023/10/04 22:05:13;;;;;;;10.43;3.53;;;;;;;13.15;71.78;100212.34;7333607;39;20289;31
2023/10/04 22:10:33;;;;;;;7.07;3.63;;;;;;;13.19;71.10;100205.59;7361222;39;21189;31
2023/10/04 22:16:06;;;;;;;6.57;3.30;;;;;;;13.06;70.75;100211.41;7382639;39;20235;31
2023/10/04 22:21:41;;;;;;;9.10;3.60;;;;;;;12.77;71.75;100208.09;7297946;40;20240;31
2023/10/04 22:27:13;;;;;;;6.95;3.75;;;;;;;12.50;73.84;100200.09;7212347;40;20327;31
2023/10/04 22:37:51;;;;;;;5.45;3.50;;;;;;;12.75;71.99;100193.03;7255207;40;20245;31
2023/10/04 22:43:12;;;;;;;7.70;3.30;;;;;;;12.84;71.67;100197.53;7213934;40;20343;31
2023/10/04 22:48:46;;;;;;;5.65;3.50;;;;;;;12.88;71.47;100209.72;7281284;39;20432;31
2023/10/04 22:54:20;;;;;;;7.00;3.65;;;;;;;12.84;71.79;100198.38;7283191;40;20244;31
2023/10/04 22:59:56;;;;;;;6.30;3.60;;;;;;;12.84;71.42;100186.69;7228528;40;20471;31
2023/10/04 23:05:29;;;;;;;7.90;4.00;;;;;;;12.74;71.78;100192.19;7237822;40;20237;31
2023/10/04 23:11:06;;;;;;;6.97;3.77;;;;;;;12.54;72.01;100196.94;7250428;40;20584;31
2023/10/04 23:16:21;;;;;;;9.53;4.17;;;;;;;12.20;73.03;100199.44;7198677;40;20247;31
2023/10/04 23:21:42;;;;;;;6.73;3.63;;;;;;;12.10;74.11;100212.19;7233289;40;20252;31
2023/10/04 23:27:16;;;;;;;6.90;4.10;;;;;;;12.08;74.60;100189.84;7255408;40;20276;31
2023/10/04 23:32:51;;;;;;;8.48;3.70;;;;;;;12.13;74.09;100176.72;7228623;40;21145;31
2023/10/04 23:38:38;;;;;;;9.27;3.83;;;;;;;12.30;74.21;100171.50;7258672;40;20252;31
2023/10/04 23:44:18;;;;;;;10.47;3.90;;;;;;;12.38;74.16;100179.69;7280586;39;20260;31
2023/10/04 23:49:49;;;;;;;12.47;3.90;;;;;;;12.49;74.31;100172.19;7298884;39;20308;31
2023/10/04 23:55:10;;;;;;;8.20;4.00;;;;;;;12.59;73.98;100172.13;7293256;40;20257;31
